Time;durP1;ratioP1;P1;durP2;ratioP2;P2;SDS_P1;SDS_P2;PMS_P1;PMS_P2;Temp;Humidity;BMP_temperature;BMP_pressure;BME280_temperature;BME280_humidity;BME280_pressure;Samples;Min_cycle;Max_cycle;Signal;HPM_P1;HPM_P2
2022/05/12 00:02:24;;;;;;;4.33;1.10;;;11.60;99.90;;;;;;5016387;28;20052;-73
2022/05/12 00:04:50;;;;;;;4.97;1.00;;;11.60;99.90;;;;;;5052597;28;20294;-72
2022/05/12 00:07:15;;;;;;;3.13;1.20;;;11.60;99.90;;;;;;5052248;28;20286;-72
2022/05/12 00:09:41;;;;;;;4.50;0.93;;;11.50;99.90;;;;;;5052080;28;20064;-73
2022/05/12 00:12:07;;;;;;;6.17;1.20;;;11.50;99.90;;;;;;5051803;28;20282;-73
2022/05/12 00:14:33;;;;;;;2.90;1.00;;;11.40;99.90;;;;;;5035120;28;20294;-72
2022/05/12 00:16:58;;;;;;;2.95;0.93;;;11.40;99.90;;;;;;5052179;28;20055;-72
2022/05/12 00:19:26;;;;;;;2.85;1.30;;;11.30;99.90;;;;;;5035097;28;20116;-72
2022/05/12 00:21:53;;;;;;;3.83;1.13;;;11.20;99.90;;;;;;5051910;28;20098;-72
2022/05/12 00:24:19;;;;;;;3.40;1.08;;;11.10;99.90;;;;;;5051580;28;20036;-73
2022/05/12 00:26:45;;;;;;;3.53;0.95;;;11.20;99.90;;;;;;5049398;28;20389;-73
2022/05/12 00:29:11;;;;;;;7.50;1.15;;;11.10;99.90;;;;;;5051611;28;20044;-73
2022/05/12 00:31:39;;;;;;;4.40;0.95;;;11.10;99.90;;;;;;5052034;28;20044;-74
2022/05/12 00:34:07;;;;;;;2.05;0.93;;;11.00;99.90;;;;;;5035223;28;20082;-73
2022/05/12 00:36:33;;;;;;;4.68;1.08;;;11.00;99.90;;;;;;5035494;28;20113;-73
2022/05/12 00:38:58;;;;;;;2.55;0.82;;;10.90;99.90;;;;;;5035185;28;20037;-72
2022/05/12 00:41:24;;;;;;;2.83;0.88;;;10.90;99.90;;;;;;5050587;28;20049;-72
2022/05/12 00:44:02;;;;;;;3.10;1.10;;;10.90;99.90;;;;;;5035112;28;20488;-73
2022/05/12 00:46:33;;;;;;;3.55;0.90;;;10.80;99.90;;;;;;5051646;28;20024;-73
2022/05/12 00:49:37;;;;;;;1.67;0.70;;;10.80;99.90;;;;;;5051941;28;20044;-73
2022/05/12 00:52:08;;;;;;;2.30;0.90;;;10.80;99.90;;;;;;5051816;28;20041;-74
2022/05/12 00:54:41;;;;;;;3.42;0.90;;;10.80;99.90;;;;;;5051690;28;20389;-72
2022/05/12 00:57:10;;;;;;;5.22;0.90;;;10.80;99.90;;;;;;5051475;28;20551;-73
2022/05/12 00:59:36;;;;;;;3.28;1.00;;;10.70;99.90;;;;;;5051422;28;20037;-73
2022/05/12 01:02:08;;;;;;;3.22;1.30;;;10.70;99.90;;;;;;5051556;28;20119;-72
2022/05/12 01:04:33;;;;;;;9.02;1.00;;;10.60;99.90;;;;;;5069561;28;20086;-74
2022/05/12 01:06:59;;;;;;;3.25;0.90;;;10.60;99.90;;;;;;5034985;28;20041;-73
2022/05/12 01:09:27;;;;;;;4.28;0.98;;;10.60;99.90;;;;;;5050947;28;20036;-73
2022/05/12 01:11:54;;;;;;;4.43;1.00;;;10.60;99.90;;;;;;5034680;28;20121;-73
2022/05/12 01:14:20;;;;;;;4.38;0.93;;;10.60;99.90;;;;;;5050513;28;20060;-72
2022/05/12 01:16:57;;;;;;;4.60;0.90;;;10.50;99.90;;;;;;5051333;28;20127;-73
2022/05/12 01:19:30;;;;;;;3.55;0.90;;;10.60;99.90;;;;;;5050734;28;20051;-72
2022/05/12 01:21:56;;;;;;;4.00;0.90;;;10.50;99.90;;;;;;5051062;28;20049;-72
2022/05/12 01:24:33;;;;;;;;;;;10.50;99.90;;;;;;5051130;28;20060;-74
2022/05/12 01:27:18;;;;;;;2.22;0.82;;;10.50;99.90;;;;;;5034481;28;20014;-73
2022/05/12 01:29:48;;;;;;;2.85;0.90;;;10.40;99.90;;;;;;5037642;28;20042;-73
2022/05/12 01:32:14;;;;;;;3.13;1.10;;;10.40;99.90;;;;;;5050568;28;20048;-73
2022/05/12 01:34:40;;;;;;;3.80;0.88;;;10.40;99.90;;;;;;5048746;28;20055;-73
2022/05/12 01:37:07;;;;;;;3.85;0.93;;;10.40;99.90;;;;;;5051192;28;20032;-72
2022/05/12 01:39:35;;;;;;;3.60;1.00;;;10.40;99.90;;;;;;5050976;28;20086;-73
2022/05/12 01:42:06;;;;;;;4.10;1.55;;;10.30;99.90;;;;;;5050846;28;20091;-72
2022/05/12 01:44:33;;;;;;;4.07;1.20;;;10.30;99.90;;;;;;5050529;28;20060;-73
2022/05/12 01:46:59;;;;;;;4.80;1.38;;;10.30;99.90;;;;;;5051169;28;20036;-73
2022/05/12 01:49:24;;;;;;;4.63;1.40;;;10.20;99.90;;;;;;5050559;28;20036;-74
2022/05/12 01:51:55;;;;;;;2.95;1.38;;;10.20;99.90;;;;;;5050014;28;20036;-73
2022/05/12 01:54:22;;;;;;;3.90;1.63;;;10.20;99.90;;;;;;5054478;28;20051;-73
2022/05/12 01:56:48;;;;;;;2.95;1.20;;;10.20;99.90;;;;;;5037987;28;20051;-73
2022/05/12 01:59:14;;;;;;;4.70;1.50;;;10.20;99.90;;;;;;5051543;28;20492;-73
2022/05/12 02:01:39;;;;;;;3.50;1.63;;;10.10;99.90;;;;;;5054700;28;20554;-73
2022/05/12 02:04:05;;;;;;;4.47;1.50;;;10.10;99.90;;;;;;5021645;28;20101;-73
2022/05/12 02:06:34;;;;;;;4.47;2.20;;;10.10;99.90;;;;;;5053890;28;20481;-73
2022/05/12 02:09:00;;;;;;;4.75;1.75;;;10.00;99.90;;;;;;5037921;28;20769;-73
2022/05/12 02:11:26;;;;;;;5.85;1.73;;;10.00;99.90;;;;;;5053826;28;20040;-72
2022/05/12 02:13:52;;;;;;;3.95;1.73;;;9.90;99.90;;;;;;5037377;28;20053;-72
2022/05/12 02:16:17;;;;;;;3.28;1.70;;;10.00;99.90;;;;;;5037006;28;20054;-73
2022/05/12 02:18:44;;;;;;;4.45;1.80;;;9.90;99.90;;;;;;5053878;28;20041;-73
2022/05/12 02:21:10;;;;;;;5.63;2.20;;;10.00;99.90;;;;;;5054138;28;20044;-73
2022/05/12 02:23:36;;;;;;;6.45;2.13;;;9.80;99.90;;;;;;5037112;28;20086;-74
2022/05/12 02:26:03;;;;;;;6.65;2.13;;;9.90;99.90;;;;;;5054008;28;20048;-74
2022/05/12 02:28:28;;;;;;;6.68;2.40;;;9.90;99.90;;;;;;5053403;28;20047;-74
2022/05/12 02:30:54;;;;;;;5.45;2.25;;;9.90;99.90;;;;;;5053963;28;20488;-73
2022/05/12 02:33:21;;;;;;;8.40;2.47;;;9.90;99.90;;;;;;5053730;28;20052;-73
2022/05/12 02:35:47;;;;;;;8.00;2.50;;;9.90;99.90;;;;;;5053766;28;20325;-73
2022/05/12 02:38:14;;;;;;;7.38;2.78;;;9.90;99.90;;;;;;5053626;28;20041;-72
2022/05/12 02:40:40;;;;;;;7.55;2.20;;;9.90;99.90;;;;;;5053651;28;20037;-73
2022/05/12 02:43:23;;;;;;;7.75;2.88;;;9.80;99.90;;;;;;5053659;28;20072;-73
2022/05/12 02:46:10;;;;;;;7.35;2.70;;;9.80;99.90;;;;;;5053627;28;20048;-74
2022/05/12 02:48:42;;;;;;;5.22;2.40;;;9.90;99.90;;;;;;5053114;28;20102;-74
2022/05/12 02:51:09;;;;;;;10.32;2.90;;;9.90;99.90;;;;;;5053929;28;20032;-73
2022/05/12 02:53:35;;;;;;;10.32;2.67;;;9.90;99.90;;;;;;5053224;28;20510;-74
2022/05/12 02:56:02;;;;;;;7.40;2.63;;;9.80;99.90;;;;;;5053465;28;20037;-74
2022/05/12 02:58:29;;;;;;;7.60;2.72;;;9.70;99.90;;;;;;5052814;28;20131;-74
2022/05/12 03:00:55;;;;;;;;;;;9.70;99.90;;;;;;5054126;28;20447;-74
2022/05/12 03:03:20;;;;;;;7.03;2.72;;;9.70;99.90;;;;;;5052315;28;20010;-74
2022/05/12 03:05:46;;;;;;;8.87;2.73;;;9.60;99.90;;;;;;5053253;28;20037;-72
2022/05/12 03:08:12;;;;;;;9.90;2.78;;;9.60;99.90;;;;;;5036510;28;20291;-72
2022/05/12 03:10:39;;;;;;;10.93;3.28;;;9.60;99.90;;;;;;5053018;28;20028;-73
2022/05/12 03:13:05;;;;;;;11.25;3.85;;;9.60;99.90;;;;;;5019728;28;20093;-72
2022/05/12 03:15:31;;;;;;;;;;;9.60;99.90;;;;;;5053166;28;20052;-72
2022/05/12 03:17:58;;;;;;;9.60;3.33;;;9.50;99.90;;;;;;5053014;28;19916;-73
2022/05/12 03:20:26;;;;;;;12.10;3.80;;;9.50;99.90;;;;;;5052265;28;20279;-72
2022/05/12 03:22:53;;;;;;;8.15;3.53;;;9.50;99.90;;;;;;5052746;28;20040;-73
2022/05/12 03:25:19;;;;;;;;;;;9.50;99.90;;;;;;5053562;28;20476;-73
2022/05/12 03:27:45;;;;;;;8.75;3.90;;;9.60;99.90;;;;;;5036222;28;19916;-72
2022/05/12 03:30:18;;;;;;;10.05;4.10;;;9.70;99.90;;;;;;5053023;28;20032;-72
2022/05/12 03:32:44;;;;;;;11.55;4.00;;;9.50;99.90;;;;;;5052715;28;20523;-72
2022/05/12 03:35:11;;;;;;;9.52;4.10;;;9.50;99.90;;;;;;5052419;28;20082;-73
2022/05/12 03:37:37;;;;;;;13.93;4.07;;;9.50;99.90;;;;;;5052084;28;20113;-74
2022/05/12 03:40:05;;;;;;;12.80;4.30;;;9.50;99.90;;;;;;5020017;28;20090;-74
2022/05/12 03:42:30;;;;;;;13.10;4.40;;;9.50;99.90;;;;;;5052066;28;20036;-74
2022/05/12 03:44:58;;;;;;;7.38;4.22;;;9.50;99.90;;;;;;5036005;28;20113;-71
2022/05/12 03:47:32;;;;;;;7.85;3.90;;;9.50;99.90;;;;;;5035747;28;20115;-72
2022/05/12 03:50:02;;;;;;;11.15;4.50;;;9.50;99.90;;;;;;5052237;28;20123;-73
2022/05/12 03:52:29;;;;;;;11.80;4.47;;;9.50;99.90;;;;;;5052005;28;20040;-73
2022/05/12 03:54:55;;;;;;;10.50;4.43;;;9.50;99.90;;;;;;5052296;28;20044;-73
2022/05/12 03:57:22;;;;;;;11.50;4.68;;;9.50;99.90;;;;;;5049723;28;20044;-73
2022/05/12 03:59:49;;;;;;;13.38;4.30;;;9.50;99.90;;;;;;5052042;28;20037;-73
2022/05/12 04:02:16;;;;;;;10.05;4.55;;;9.40;99.90;;;;;;5052431;28;20425;-72
2022/05/12 04:04:43;;;;;;;8.27;4.30;;;9.40;99.90;;;;;;5051734;28;20037;-73
2022/05/12 04:07:12;;;;;;;10.98;4.35;;;9.40;99.90;;;;;;5052017;28;20118;-73
2022/05/12 04:09:38;;;;;;;10.88;4.43;;;9.40;99.90;;;;;;5035023;28;20071;-73
2022/05/12 04:12:05;;;;;;;10.30;4.47;;;9.40;99.90;;;;;;5051902;28;20538;-72
2022/05/12 04:14:32;;;;;;;13.43;5.03;;;9.40;99.90;;;;;;5050646;28;20474;-73
2022/05/12 04:16:59;;;;;;;9.38;4.53;;;9.40;99.90;;;;;;5051786;28;20080;-72
2022/05/12 04:19:25;;;;;;;11.88;4.63;;;9.40;99.90;;;;;;5051745;28;20575;-74
2022/05/12 04:21:53;;;;;;;11.48;4.78;;;9.40;99.90;;;;;;5051859;28;20041;-73
2022/05/12 04:24:19;;;;;;;10.95;5.82;;;9.50;99.90;;;;;;5051831;28;20048;-73
2022/05/12 04:26:46;;;;;;;15.75;5.72;;;9.50;99.90;;;;;;5051698;28;20042;-74
2022/05/12 04:29:11;;;;;;;12.23;5.28;;;9.60;99.90;;;;;;5051580;28;20044;-75
2022/05/12 04:31:37;;;;;;;14.23;5.55;;;9.70;99.90;;;;;;5051014;28;20040;-73
2022/05/12 04:36:48;;;;;;;13.20;4.95;;;9.70;99.90;;;;;;5051589;28;20457;-72
2022/05/12 04:39:13;;;;;;;13.43;5.47;;;9.70;99.90;;;;;;5051828;28;20075;-73
2022/05/12 04:41:39;;;;;;;13.68;5.20;;;9.80;99.90;;;;;;5051088;28;20052;-75
2022/05/12 04:44:06;;;;;;;11.37;4.77;;;9.80;99.90;;;;;;5051639;28;20068;-74
2022/05/12 04:46:34;;;;;;;13.50;5.28;;;9.90;99.90;;;;;;5051297;28;20283;-74
2022/05/12 04:49:00;;;;;;;14.55;5.82;;;9.90;99.90;;;;;;5051825;28;20041;-74
2022/05/12 04:51:26;;;;;;;14.80;5.72;;;10.00;99.90;;;;;;5051437;28;20036;-73
2022/05/12 04:53:52;;;;;;;12.85;5.82;;;10.00;99.90;;;;;;5050896;28;20098;-73
2022/05/12 04:56:17;;;;;;;12.23;5.47;;;10.00;99.90;;;;;;5051326;28;20052;-74
2022/05/12 04:58:57;;;;;;;12.70;5.20;;;10.00;99.90;;;;;;5051008;28;20058;-73
2022/05/12 05:01:22;;;;;;;14.90;6.43;;;10.10;99.90;;;;;;5033265;28;20306;-74
2022/05/12 05:03:48;;;;;;;13.97;5.77;;;10.10;99.90;;;;;;5069840;28;20079;-74
2022/05/12 05:06:14;;;;;;;10.55;5.13;;;10.40;99.90;;;;;;5052008;28;20044;-74
2022/05/12 05:08:39;;;;;;;12.37;5.37;;;10.30;99.90;;;;;;5035241;28;20032;-74
2022/05/12 05:11:06;;;;;;;10.43;6.00;;;10.30;99.90;;;;;;5051966;28;20283;-74
2022/05/12 05:13:32;;;;;;;10.52;6.10;;;10.40;99.90;;;;;;5069563;28;20079;-73
2022/05/12 05:15:58;;;;;;;12.07;5.93;;;10.50;99.90;;;;;;5035395;28;20051;-74
2022/05/12 05:18:24;;;;;;;13.40;5.97;;;10.50;99.90;;;;;;5035352;28;20419;-74
2022/05/12 05:20:50;;;;;;;11.88;5.60;;;10.60;99.90;;;;;;5051797;28;20117;-74
2022/05/12 05:23:16;;;;;;;14.82;5.90;;;10.70;99.90;;;;;;5051788;28;20037;-75
2022/05/12 05:25:43;;;;;;;10.85;5.65;;;10.90;99.90;;;;;;5018356;28;20036;-74
2022/05/12 05:28:10;;;;;;;14.32;5.72;;;11.00;99.90;;;;;;5039184;28;20471;-73
2022/05/12 05:30:36;;;;;;;14.75;5.35;;;11.10;99.90;;;;;;5055216;28;20051;-74
2022/05/12 05:33:03;;;;;;;9.77;4.78;;;11.20;99.90;;;;;;5039139;28;20492;-74
2022/05/12 05:35:29;;;;;;;;;;;11.30;99.90;;;;;;5056053;28;20127;-73
2022/05/12 05:37:55;;;;;;;15.82;5.30;;;11.50;99.90;;;;;;5055565;28;19923;-74
2022/05/12 05:40:23;;;;;;;12.98;4.93;;;11.60;99.90;;;;;;5055267;28;20125;-74
2022/05/12 05:42:50;;;;;;;13.32;5.75;;;11.80;99.90;;;;;;5054855;28;20032;-74
2022/05/12 05:45:17;;;;;;;16.75;4.72;;;11.90;99.90;;;;;;5055332;28;20044;-74
2022/05/12 05:47:49;;;;;;;10.93;4.70;;;12.10;99.90;;;;;;5055259;28;20442;-74
2022/05/12 05:50:18;;;;;;;14.05;4.65;;;12.20;99.90;;;;;;5055263;28;20041;-74
2022/05/12 05:55:28;;;;;;;9.40;3.78;;;12.50;99.90;;;;;;5055242;28;20052;-75
2022/05/12 05:57:57;;;;;;;14.02;4.32;;;12.70;99.90;;;;;;5055430;28;20442;-74
2022/05/12 06:00:23;;;;;;;12.00;4.10;;;12.80;99.90;;;;;;5055642;28;20072;-74
2022/05/12 06:02:48;;;;;;;11.60;3.60;;;13.00;99.90;;;;;;5054865;28;20072;-74
2022/05/12 06:05:17;;;;;;;8.75;3.13;;;13.40;99.90;;;;;;5054980;28;20044;-75
2022/05/12 06:07:44;;;;;;;9.65;3.03;;;13.90;99.90;;;;;;5054962;28;20044;-75
2022/05/12 06:10:10;;;;;;;9.90;3.45;;;14.30;99.90;;;;;;5038602;28;20550;-75
2022/05/12 06:12:37;;;;;;;;;;;14.70;99.90;;;;;;5054996;28;20123;-75
2022/05/12 06:15:05;;;;;;;11.02;3.28;;;15.10;99.90;;;;;;5054913;28;19927;-75
2022/05/12 06:17:31;;;;;;;7.28;2.78;;;15.40;99.90;;;;;;5054912;28;20045;-75
2022/05/12 06:19:57;;;;;;;4.43;2.55;;;15.60;99.90;;;;;;5037738;28;20488;-75
2022/05/12 06:22:23;;;;;;;5.55;2.28;;;16.00;99.90;;;;;;5054896;28;20045;-75
2022/05/12 06:24:49;;;;;;;10.90;2.80;;;16.10;99.90;;;;;;5054538;28;20028;-75
2022/05/12 06:27:16;;;;;;;8.05;2.85;;;16.30;99.90;;;;;;5054724;28;20051;-75
2022/05/12 06:29:44;;;;;;;6.15;2.10;;;16.50;99.90;;;;;;5054649;28;20396;-75
2022/05/12 06:32:10;;;;;;;6.22;2.08;;;16.70;99.90;;;;;;5054935;28;20056;-75
2022/05/12 06:34:36;;;;;;;;;;;16.90;99.90;;;;;;5054920;28;20127;-75
2022/05/12 06:37:04;;;;;;;6.60;2.03;;;17.00;99.90;;;;;;5054964;28;20054;-74
2022/05/12 06:39:30;;;;;;;7.72;2.35;;;17.20;99.90;;;;;;5037020;28;20384;-74
2022/05/12 06:41:56;;;;;;;7.10;1.80;;;17.20;99.90;;;;;;5054153;28;20078;-73
2022/05/12 06:44:22;;;;;;;8.82;1.95;;;17.30;99.90;;;;;;5055043;28;20496;-74
2022/05/12 06:46:48;;;;;;;4.55;1.83;;;17.40;99.90;;;;;;5053976;28;20087;-74
2022/05/12 06:49:14;;;;;;;5.15;1.80;;;17.50;99.90;;;;;;5054513;28;20048;-74
2022/05/12 06:51:39;;;;;;;7.72;2.10;;;17.60;99.90;;;;;;5054017;28;20050;-75
2022/05/12 06:54:06;;;;;;;6.07;1.77;;;17.60;99.90;;;;;;5054275;28;20037;-75
2022/05/12 06:56:32;;;;;;;8.40;2.40;;;17.40;99.90;;;;;;5037808;28;20040;-74
2022/05/12 06:58:57;;;;;;;8.13;1.83;;;17.70;99.90;;;;;;5053939;28;20060;-74
2022/05/12 07:01:24;;;;;;;7.35;1.90;;;17.90;99.90;;;;;;5054217;28;20051;-74
2022/05/12 07:03:50;;;;;;;;;;;18.10;99.90;;;;;;5054070;28;20122;-75
2022/05/12 07:06:16;;;;;;;4.32;1.75;;;18.10;99.90;;;;;;5054284;28;20315;-74
2022/05/12 07:08:42;;;;;;;9.95;1.92;;;18.10;99.90;;;;;;5037128;28;20033;-74
2022/05/12 07:11:09;;;;;;;7.55;1.77;;;18.20;99.90;;;;;;5053925;28;20076;-75
2022/05/12 07:13:35;;;;;;;5.35;1.90;;;18.40;99.90;;;;;;5053454;28;20057;-75
2022/05/12 07:16:03;;;;;;;5.70;1.40;;;18.50;99.90;;;;;;5053480;28;20091;-75
2022/05/12 07:18:29;;;;;;;5.65;1.58;;;18.60;99.90;;;;;;5053945;28;20037;-75
2022/05/12 07:26:40;;;;;;;8.20;1.60;;;18.90;99.90;;;;;;5053593;28;20257;-75
2022/05/12 07:29:26;;;;;;;4.13;1.25;;;19.10;99.90;;;;;;5053245;28;20044;-75
2022/05/12 07:31:52;;;;;;;3.60;1.17;;;19.30;99.90;;;;;;5053227;28;20036;-75
2022/05/12 07:34:19;;;;;;;6.40;1.40;;;19.10;99.90;;;;;;5053813;28;20489;-75
2022/05/12 07:36:47;;;;;;;6.55;1.42;;;19.20;99.90;;;;;;5052942;28;20033;-75
2022/05/12 07:39:13;;;;;;;4.47;1.08;;;19.30;99.90;;;;;;5053394;28;20051;-74
2022/05/12 07:41:41;;;;;;;5.35;1.10;;;19.40;99.90;;;;;;5053416;28;20492;-74
2022/05/12 07:44:18;;;;;;;5.43;1.00;;;19.60;99.90;;;;;;5052763;28;20047;-74
2022/05/12 07:46:45;;;;;;;;;;;19.70;99.90;;;;;;5054047;28;20121;-75
2022/05/12 07:49:11;;;;;;;5.80;1.35;;;19.50;99.90;;;;;;5053139;28;20003;-75
2022/05/12 07:51:37;;;;;;;;;;;19.80;99.90;;;;;;5036866;28;20037;-75
2022/05/12 07:54:03;;;;;;;5.55;1.33;;;19.90;99.90;;;;;;5069353;28;20003;-75
2022/05/12 07:56:29;;;;;;;3.67;1.30;;;20.00;99.90;;;;;;5053085;28;20152;-75
2022/05/12 07:58:56;;;;;;;5.18;0.93;;;20.10;99.90;;;;;;5052713;28;20036;-75
2022/05/12 08:01:23;;;;;;;4.15;1.40;;;20.30;99.90;;;;;;5053258;28;20513;-75
2022/05/12 08:03:49;;;;;;;6.47;1.15;;;20.30;99.90;;;;;;5052940;28;20488;-75
2022/05/12 08:06:16;;;;;;;3.75;0.98;;;20.40;99.90;;;;;;5052858;28;20037;-76
2022/05/12 08:08:43;;;;;;;6.80;1.30;;;20.60;99.90;;;;;;5036340;28;20066;-75
2022/05/12 08:11:10;;;;;;;6.35;0.90;;;20.50;99.90;;;;;;5050063;28;20036;-75
2022/05/12 08:13:37;;;;;;;4.97;0.90;;;20.50;99.90;;;;;;5052764;28;20056;-75
2022/05/12 08:16:04;;;;;;;5.40;0.98;;;20.70;99.90;;;;;;5052514;28;20126;-76
2022/05/12 08:18:35;;;;;;;2.95;0.90;;;20.60;99.90;;;;;;5036477;28;20033;-75
2022/05/12 08:21:01;;;;;;;6.18;1.23;;;20.60;99.90;;;;;;5052469;28;20101;-75
2022/05/12 08:23:27;;;;;;;2.42;0.80;;;20.60;99.90;;;;;;5052560;28;20075;-74
2022/05/12 08:25:53;;;;;;;4.13;0.90;;;20.60;99.90;;;;;;5036014;28;20136;-75
2022/05/12 08:28:20;;;;;;;;;;;20.40;99.90;;;;;;5070982;28;20049;-74
2022/05/12 08:30:47;;;;;;;6.55;1.23;;;20.80;99.90;;;;;;5052516;28;19949;-74
2022/05/12 08:33:14;;;;;;;3.03;0.77;;;21.20;99.90;;;;;;5052003;28;20044;-74
2022/05/12 08:35:40;;;;;;;4.43;0.90;;;21.60;99.90;;;;;;5052411;28;20178;-75
2022/05/12 08:38:06;;;;;;;3.83;0.70;;;21.80;99.90;;;;;;5051985;28;20094;-74
2022/05/12 08:40:39;;;;;;;4.15;1.10;;;21.70;99.90;;;;;;5052536;28;20059;-74
2022/05/12 08:43:19;;;;;;;4.97;0.75;;;21.60;99.90;;;;;;5035282;28;20049;-74
2022/05/12 08:45:46;;;;;;;4.43;0.80;;;21.50;99.90;;;;;;5035658;28;20071;-74
2022/05/12 08:48:14;;;;;;;5.25;1.05;;;21.20;99.90;;;;;;5035566;28;20511;-74
2022/05/12 08:50:40;;;;;;;4.50;1.10;;;20.90;99.90;;;;;;5052462;28;20501;-74
2022/05/12 08:53:29;;;;;;;7.55;1.20;;;20.40;99.90;;;;;;5035321;28;20040;-74
2022/05/12 08:55:57;;;;;;;3.78;1.02;;;20.30;99.90;;;;;;5051661;28;20041;-75
2022/05/12 08:58:39;;;;;;;2.45;0.63;;;20.60;99.90;;;;;;5052284;28;20097;-75
2022/05/12 09:01:09;;;;;;;5.72;1.00;;;20.60;99.90;;;;;;5052167;28;20036;-74
2022/05/12 09:03:53;;;;;;;3.08;0.82;;;20.40;99.90;;;;;;5056279;28;20121;-74
2022/05/12 09:06:54;;;;;;;4.57;0.90;;;20.30;99.90;;;;;;5056242;28;20032;-75
2022/05/12 09:09:28;;;;;;;3.85;0.90;;;20.60;99.90;;;;;;5052487;28;20127;-75
2022/05/12 09:12:09;;;;;;;4.10;1.00;;;20.60;99.90;;;;;;5055988;28;20036;-75
2022/05/12 09:14:56;;;;;;;3.25;0.80;;;20.40;99.90;;;;;;5039400;28;20106;-74
2022/05/12 09:17:25;;;;;;;3.60;0.90;;;20.30;99.90;;;;;;5039624;28;20048;-75
2022/05/12 09:19:51;;;;;;;3.92;0.70;;;20.40;99.90;;;;;;5056157;28;20078;-74
2022/05/12 09:22:29;;;;;;;7.57;0.90;;;20.20;99.90;;;;;;5055537;28;20044;-74
2022/05/12 09:24:55;;;;;;;4.72;0.80;;;20.00;99.90;;;;;;5056254;28;20045;-74
2022/05/12 09:27:34;;;;;;;3.60;0.88;;;20.20;99.80;;;;;;5056006;28;20374;-74
2022/05/12 09:30:03;;;;;;;3.50;0.93;;;20.60;99.90;;;;;;5073399;28;20054;-75
2022/05/12 09:32:35;;;;;;;6.57;1.42;;;20.80;99.90;;;;;;5039822;28;20101;-75
2022/05/12 09:35:06;;;;;;;4.63;0.90;;;21.00;99.90;;;;;;5073447;28;20542;-74
2022/05/12 09:37:32;;;;;;;5.50;0.88;;;20.40;99.20;;;;;;5055769;28;20063;-74
2022/05/12 09:40:12;;;;;;;5.32;0.80;;;20.20;99.90;;;;;;5055200;28;20060;-74
2022/05/12 09:43:00;;;;;;;4.82;0.82;;;19.90;99.90;;;;;;5055315;28;20123;-74
2022/05/12 09:45:36;;;;;;;3.38;0.80;;;20.10;99.90;;;;;;5055576;28;20043;-75
2022/05/12 09:48:18;;;;;;;1.98;0.57;;;19.60;99.90;;;;;;5055287;28;20119;-75
2022/05/12 09:50:45;;;;;;;2.25;0.50;;;19.50;99.80;;;;;;5055361;28;20059;-74
2022/05/12 09:53:13;;;;;;;2.15;0.65;;;19.50;99.50;;;;;;5055021;28;20036;-74
2022/05/12 09:56:10;;;;;;;4.30;1.00;;;19.90;99.90;;;;;;5055687;28;20496;-75
2022/05/12 09:58:39;;;;;;;1.35;0.60;;;20.50;99.90;;;;;;5055456;28;20043;-74
2022/05/12 10:01:15;;;;;;;4.20;0.63;;;20.60;98.50;;;;;;5055187;28;20504;-75
2022/05/12 10:09:21;;;;;;;3.47;0.82;;;20.30;98.50;;;;;;5072383;28;20048;-75
2022/05/12 10:12:00;;;;;;;3.85;1.00;;;19.90;99.00;;;;;;5054995;28;20040;-73
2022/05/12 10:14:53;;;;;;;4.10;0.98;;;19.80;99.00;;;;;;5055064;28;20416;-74
2022/05/12 10:17:48;;;;;;;3.90;1.10;;;19.90;99.90;;;;;;5052505;28;20484;-74
2022/05/12 10:20:18;;;;;;;5.70;0.90;;;19.60;99.60;;;;;;5054564;28;20052;-74
2022/05/12 10:23:09;;;;;;;1.73;0.57;;;19.60;99.30;;;;;;5038302;28;20041;-74
2022/05/12 10:26:00;;;;;;;2.83;0.60;;;20.00;99.40;;;;;;5054963;28;20036;-75
2022/05/12 10:28:43;;;;;;;3.55;0.90;;;20.50;99.60;;;;;;5054313;28;20044;-74
2022/05/12 10:31:26;;;;;;;3.95;0.77;;;20.30;99.10;;;;;;5054360;28;20047;-75
2022/05/12 10:33:53;;;;;;;4.80;0.70;;;20.10;99.00;;;;;;5054727;28;20063;-74
2022/05/12 10:36:43;;;;;;;4.70;1.00;;;20.50;99.20;;;;;;5054097;28;20049;-74
2022/05/12 10:39:12;;;;;;;4.03;0.80;;;20.70;98.40;;;;;;5072161;28;20116;-74
2022/05/12 10:41:47;;;;;;;2.83;0.60;;;20.90;98.90;;;;;;5054661;28;20479;-75
2022/05/12 10:45:07;;;;;;;5.43;0.68;;;21.30;97.40;;;;;;5054130;28;20076;-74
2022/05/12 10:47:35;;;;;;;4.15;0.85;;;21.90;96.40;;;;;;4974711;28;20038;-75
2022/05/12 10:50:26;;;;;;;3.75;0.90;;;22.20;96.70;;;;;;5039371;28;20052;-75
2022/05/12 10:53:20;;;;;;;2.63;0.60;;;22.70;96.40;;;;;;5037631;28;20041;-74
2022/05/12 10:56:01;;;;;;;4.57;0.60;;;22.70;95.90;;;;;;5054176;28;20044;-74
2022/05/12 10:58:54;;;;;;;2.65;0.60;;;22.70;95.30;;;;;;5053847;28;20048;-75
2022/05/12 11:01:29;;;;;;;5.43;0.80;;;22.50;95.30;;;;;;5053735;28;20127;-74
2022/05/12 11:04:08;;;;;;;3.70;0.60;;;22.80;96.20;;;;;;5037521;28;20041;-75
2022/05/12 11:06:40;;;;;;;3.97;0.50;;;22.80;94.30;;;;;;5053999;28;20048;-75
2022/05/12 11:09:19;;;;;;;4.65;0.93;;;22.40;95.10;;;;;;5054517;28;20114;-75
2022/05/12 11:11:49;;;;;;;4.15;0.70;;;22.10;94.80;;;;;;5053901;28;20036;-75
2022/05/12 11:14:28;;;;;;;4.70;0.77;;;22.60;96.20;;;;;;5053115;28;20096;-74
2022/05/12 11:17:02;;;;;;;3.10;0.80;;;23.10;95.80;;;;;;5054033;28;20040;-75
2022/05/12 11:19:27;;;;;;;4.22;0.82;;;23.30;95.20;;;;;;5053315;28;20067;-74
2022/05/12 11:22:05;;;;;;;;;;;23.40;94.80;;;;;;5037768;28;20045;-75
2022/05/12 11:24:43;;;;;;;2.60;0.47;;;23.20;93.70;;;;;;5070762;28;19920;-75
2022/05/12 11:27:40;;;;;;;3.60;0.50;;;23.00;93.70;;;;;;5054184;28;20047;-75
2022/05/12 11:30:25;;;;;;;6.53;0.75;;;22.30;94.50;;;;;;5053973;28;20040;-74
2022/05/12 11:33:10;;;;;;;2.88;0.57;;;21.60;94.20;;;;;;5053947;28;20040;-74
2022/05/12 11:35:45;;;;;;;4.40;0.50;;;21.60;94.80;;;;;;5036876;28;21449;-75
2022/05/12 11:38:43;;;;;;;2.30;0.57;;;21.60;94.30;;;;;;5053085;28;20045;-75
2022/05/12 11:41:24;;;;;;;1.75;0.43;;;21.70;94.70;;;;;;5029680;28;20051;-75
2022/05/12 11:47:00;;;;;;;3.97;0.70;;;22.40;94.80;;;;;;5050918;28;20041;-73
2022/05/12 11:49:41;;;;;;;3.47;0.77;;;22.80;94.60;;;;;;5053103;28;20040;-74
2022/05/12 11:52:16;;;;;;;2.78;0.57;;;23.10;94.90;;;;;;5053669;28;20063;-74
2022/05/12 11:55:28;;;;;;;2.28;0.50;;;23.30;93.20;;;;;;5053417;28;20048;-74
2022/05/12 11:58:09;;;;;;;2.10;0.47;;;23.10;92.80;;;;;;4973504;28;20654;-74
2022/05/12 12:00:35;;;;;;;2.70;0.40;;;22.50;93.20;;;;;;5050932;28;20078;-74
2022/05/12 12:03:19;;;;;;;;;;;22.50;93.80;;;;;;5053506;28;20075;-73
2022/05/12 12:05:47;;;;;;;3.60;0.70;;;23.00;93.80;;;;;;5052894;28;19916;-75
2022/05/12 12:08:36;;;;;;;1.80;0.40;;;23.30;93.20;;;;;;5052501;28;20045;-75
2022/05/12 12:11:14;;;;;;;4.22;1.10;;;23.70;93.00;;;;;;5052840;28;20069;-74
2022/05/12 12:13:51;;;;;;;4.00;0.70;;;23.60;92.90;;;;;;5052742;28;20045;-74
2022/05/12 12:16:37;;;;;;;3.40;0.70;;;23.80;92.80;;;;;;5035687;28;20080;-74
2022/05/12 12:19:05;;;;;;;1.80;0.70;;;23.70;91.90;;;;;;5051163;28;20048;-74
2022/05/12 12:21:42;;;;;;;2.58;0.57;;;23.20;91.90;;;;;;5052429;28;20439;-73
2022/05/12 12:24:20;;;;;;;4.78;1.45;;;22.80;92.30;;;;;;5052791;28;20082;-74
2022/05/12 12:26:50;;;;;;;3.58;0.90;;;22.50;92.50;;;;;;5052728;28;20369;-75
2022/05/12 12:29:38;;;;;;;2.83;0.68;;;22.80;92.40;;;;;;5052075;28;20067;-75
2022/05/12 12:32:26;;;;;;;3.83;0.80;;;23.10;91.50;;;;;;5052843;28;20048;-75
2022/05/12 12:34:54;;;;;;;4.00;0.70;;;23.00;91.60;;;;;;5052844;28;20040;-75
2022/05/12 12:37:40;;;;;;;2.83;0.70;;;22.80;92.00;;;;;;5051405;28;20484;-75
2022/05/12 12:40:31;;;;;;;3.70;1.23;;;22.50;92.40;;;;;;5035938;28;20123;-74
2022/05/12 12:43:14;;;;;;;2.92;0.50;;;22.30;92.70;;;;;;5035677;28;20055;-74
2022/05/12 12:45:47;;;;;;;3.28;0.60;;;22.80;92.90;;;;;;5052025;28;20079;-75
2022/05/12 12:48:17;;;;;;;3.00;0.77;;;23.00;92.00;;;;;;5052705;28;20362;-73
2022/05/12 12:50:51;;;;;;;3.88;0.77;;;23.50;92.30;;;;;;5035653;28;20044;-74
2022/05/12 12:53:23;;;;;;;3.85;0.80;;;23.10;90.70;;;;;;5052485;28;20081;-73
2022/05/12 12:58:42;;;;;;;3.33;0.85;;;22.70;92.00;;;;;;5051576;28;20072;-76
2022/05/12 13:01:16;;;;;;;3.25;0.70;;;22.40;92.20;;;;;;5052322;28;20489;-74
2022/05/12 13:03:53;;;;;;;5.32;1.00;;;22.20;91.40;;;;;;5051802;28;20032;-74
2022/05/12 13:06:34;;;;;;;3.13;1.00;;;22.00;92.60;;;;;;5051611;28;20037;-74
2022/05/12 13:09:03;;;;;;;4.25;0.70;;;21.90;92.20;;;;;;5052647;28;20033;-74
2022/05/12 13:11:29;;;;;;;3.08;1.10;;;22.30;92.90;;;;;;5051978;28;20396;-73
2022/05/12 13:13:56;;;;;;;;;;;22.60;90.80;;;;;;5052385;28;20091;-74
2022/05/12 13:16:25;;;;;;;1.25;0.47;;;22.60;90.80;;;;;;5035294;28;20259;-74
2022/05/12 13:18:53;;;;;;;2.28;0.80;;;22.50;91.10;;;;;;5052145;28;20507;-75
2022/05/12 13:21:36;;;;;;;3.47;0.80;;;22.10;91.20;;;;;;5035449;28;20485;-74
2022/05/12 13:24:27;;;;;;;2.05;0.60;;;22.10;91.20;;;;;;5069934;28;20040;-75
2022/05/12 13:26:57;;;;;;;3.60;0.80;;;22.20;91.30;;;;;;5051968;28;20040;-73
2022/05/12 13:29:31;;;;;;;3.33;0.70;;;22.20;90.30;;;;;;5051701;28;20496;-73
2022/05/12 13:32:03;;;;;;;1.63;0.40;;;22.70;90.20;;;;;;5051780;28;20037;-73
2022/05/12 13:34:30;;;;;;;2.63;0.60;;;23.10;90.30;;;;;;5051858;28;20040;-73